Boynton Beach, FL (33435)

12:46 AM EST on February 10, 2016 (GMT -0500)
Forest Park | | Change Station
CLOSE
Current Station
Personal Weather Station
Location: Boynton Beach, FL
Elevation: 15 ft
Nearby Weather Stations

Elev 15 ft 26.52 °N, 80.07 °W | Updated 6 days ago

Mostly Cloudy
Mostly Cloudy
54 °F
Feels Like 54 °F
N
11
Wind Variable Wind from WNW
Gusts 16 mph

Today
High -- | Low -- °F
--% Chance of Precip.
Yesterday
High -- | Low -- °F
Precip. -- in
Pressure 30.10 in
Visibility 10.0 miles
Clouds Overcast 22000 ft
Dew Point 46 °F
Humidity 74%
Rainfall in
Snow Depth Not available.
7:00 AM 6:09 PM
Waxing Crescent, 4% visible
METAR KPBI 100453Z 28004KT 10SM OVC220 13/08 A3010 RMK AO2 SLP193 T01280083 401890128
Pressure 30.10 in
Visibility 10.0 miles
Clouds Overcast 22000 ft
Dew Point 46 °F
Humidity 74%
Rainfall in
Snow Depth Not available.
7:00 AM 6:09 PM
Waxing Crescent, 4% visible
METAR KPBI 100453Z 28004KT 10SM OVC220 13/08 A3010 RMK AO2 SLP193 T01280083 401890128

10-Day Weather Forecast

Almanac

Astronomy

Feb. 10, 2016 Rise Set
Actual Time
Civil Twilight
Nautical Twilight
Astronomical Twilight
Moon
Length of Visible Light
Length of Day
Tomorrow will be .
, % of the Moon is Illuminated

Today's Extremes

State Highs State Lows

Community

WunderPhotos

Upload Photos

1,891,823 photos uploaded!

WunderBlog® & News

Nearby

Air Quality

  Air Quality AQ Index Pollutant
Not available.

Snow Depth

Station Depth Elevation

Earthquake Activity

City Distance Mag. Time & Date
Minimum magnitude displayed is 2.5.

Coastal Water Temperatures

Place Temperature

Stations

Nearby Weather Stations

Station Location Temp. Windchill Dew Point Humidity Wind Precip. Elev Updated Type
                   

Watches & Warnings

There are currently no watches in effect.